Aviation Digital Data Service (ADDS)

Output produced by TAFs form (1912 UTC 23 October 2014)
found at http://aviationweather.gov/adds/tafs/
 
KTUS 231720Z 2318/2418 14007KT P6SM SKC 
     FM232100 34007KT P6SM SKC 
     FM240400 14005KT P6SM SKC 
     FM241100 14011KT P6SM SKC 
     FM241600 13005KT P6SM SKC